MSC2977 EDDF-HEMA
Flight info
| Callsign | MSC2977 |
|---|---|
| Flight time | N/A |
| Altitude | 35000 |
| Route | CINDY5L CINDY Z74 LAMPU DCT NOMBO Y161 MAH DCT VAVOR DCT RADIZ DCT GORPA DCT EVTON DCT MEDUX UM867 KOGAT DCT ERANA UL737 TSL UN130 MES UL609 RDS UL995 VANZA DCT RASDA/N0453F370 A16 CVO A727 LXR M999 ELELI V730 MAK DCT |
| Aircraft | A320/M-SDE3FGHIRWY/LB1 |
Departure
| Time | N/A |
|---|---|
| Airport | Frankfurt Main Airport (EDDF) |
Arrival
| Time | 2026-04-16 14:59 |
|---|---|
| Airport | Marsa Alam International Airport (HEMA) |
| Time | Latitude | Longitude | Altitude | Speed | Heading |
|---|---|---|---|---|---|
| 2026-04-16 14:36 | 26.08561 | 32.66476 | 28509 ft | 482 kts | 170° |
| 2026-04-16 14:37 | 26.05333 | 32.67472 | 28240 ft | 482 kts | 170° |
| 2026-04-16 14:37 | 26.02096 | 32.68473 | 27976 ft | 483 kts | 170° |
| 2026-04-16 14:37 | 25.98857 | 32.69474 | 27702 ft | 484 kts | 170° |
| 2026-04-16 14:37 | 25.95654 | 32.70463 | 27446 ft | 484 kts | 170° |
| 2026-04-16 14:38 | 25.92411 | 32.71462 | 27197 ft | 484 kts | 170° |
| 2026-04-16 14:38 | 25.89165 | 32.72465 | 26949 ft | 484 kts | 170° |
| 2026-04-16 14:38 | 25.85915 | 32.73468 | 26699 ft | 485 kts | 170° |
| 2026-04-16 14:38 | 25.82666 | 32.74468 | 26452 ft | 485 kts | 170° |
| 2026-04-16 14:39 | 25.79455 | 32.75673 | 26204 ft | 491 kts | 161° |
| 2026-04-16 14:39 | 25.76431 | 32.77490 | 25961 ft | 499 kts | 151° |
| 2026-04-16 14:39 | 25.73702 | 32.79912 | 25714 ft | 507 kts | 140° |
| 2026-04-16 14:39 | 25.71368 | 32.82868 | 25463 ft | 514 kts | 129° |
| 2026-04-16 14:40 | 25.69376 | 32.86166 | 25237 ft | 516 kts | 127° |
| 2026-04-16 14:40 | 25.67399 | 32.89493 | 24990 ft | 516 kts | 127° |
| 2026-04-16 14:40 | 25.65421 | 32.92813 | 24757 ft | 516 kts | 127° |
| 2026-04-16 14:40 | 25.63446 | 32.96122 | 24523 ft | 514 kts | 127° |
| 2026-04-16 14:41 | 25.61479 | 32.99416 | 24295 ft | 512 kts | 127° |
| 2026-04-16 14:41 | 25.59522 | 33.02690 | 24060 ft | 503 kts | 127° |
| 2026-04-16 14:41 | 25.57630 | 33.05858 | 23832 ft | 484 kts | 127° |
| 2026-04-16 14:41 | 25.55804 | 33.08913 | 23604 ft | 468 kts | 127° |
| 2026-04-16 14:42 | 25.54035 | 33.11871 | 23383 ft | 454 kts | 127° |
| 2026-04-16 14:42 | 25.52300 | 33.14760 | 23142 ft | 449 kts | 128° |
| 2026-04-16 14:42 | 25.50573 | 33.17625 | 22868 ft | 446 kts | 128° |
| 2026-04-16 14:42 | 25.48879 | 33.20434 | 22610 ft | 444 kts | 128° |
| 2026-04-16 14:43 | 25.47174 | 33.23265 | 22345 ft | 441 kts | 128° |
| 2026-04-16 14:43 | 25.45474 | 33.26086 | 22084 ft | 439 kts | 128° |
| 2026-04-16 14:43 | 25.43783 | 33.28892 | 21834 ft | 438 kts | 127° |
| 2026-04-16 14:43 | 25.42077 | 33.31729 | 21582 ft | 436 kts | 127° |
| 2026-04-16 14:44 | 25.40424 | 33.34476 | 21323 ft | 434 kts | 127° |
| 2026-04-16 14:44 | 25.38756 | 33.37246 | 21076 ft | 432 kts | 127° |
| 2026-04-16 14:44 | 25.37095 | 33.40009 | 20828 ft | 430 kts | 127° |
| 2026-04-16 14:44 | 25.35617 | 33.42889 | 20581 ft | 431 kts | 118° |
| 2026-04-16 14:45 | 25.34499 | 33.45967 | 20337 ft | 432 kts | 110° |
| 2026-04-16 14:45 | 25.33766 | 33.49184 | 20096 ft | 433 kts | 101° |
| 2026-04-16 14:45 | 25.33439 | 33.52490 | 19855 ft | 432 kts | 93° |
| 2026-04-16 14:45 | 25.33518 | 33.55801 | 19618 ft | 431 kts | 84° |
| 2026-04-16 14:46 | 25.33993 | 33.59059 | 19380 ft | 429 kts | 76° |
| 2026-04-16 14:46 | 25.34775 | 33.62237 | 19147 ft | 427 kts | 73° |
| 2026-04-16 14:46 | 25.35577 | 33.65392 | 18912 ft | 425 kts | 73° |
| 2026-04-16 14:46 | 25.36373 | 33.68531 | 18686 ft | 423 kts | 73° |
| 2026-04-16 14:47 | 25.37164 | 33.71669 | 18454 ft | 424 kts | 74° |
| 2026-04-16 14:47 | 25.37952 | 33.74807 | 18229 ft | 423 kts | 74° |
| 2026-04-16 14:47 | 25.38737 | 33.77934 | 18004 ft | 422 kts | 74° |
| 2026-04-16 14:47 | 25.39521 | 33.81054 | 17753 ft | 420 kts | 74° |
| 2026-04-16 14:48 | 25.40301 | 33.84156 | 17494 ft | 417 kts | 74° |
| 2026-04-16 14:48 | 25.41073 | 33.87237 | 17231 ft | 414 kts | 74° |
| 2026-04-16 14:48 | 25.41844 | 33.90295 | 16977 ft | 411 kts | 74° |
| 2026-04-16 14:48 | 25.42610 | 33.93335 | 16731 ft | 409 kts | 74° |
| 2026-04-16 14:49 | 25.43366 | 33.96355 | 16495 ft | 407 kts | 74° |
| 2026-04-16 14:49 | 25.44116 | 33.99358 | 16242 ft | 404 kts | 74° |
| 2026-04-16 14:49 | 25.44858 | 34.02342 | 16003 ft | 401 kts | 74° |
| 2026-04-16 14:49 | 25.45595 | 34.05309 | 15757 ft | 399 kts | 74° |
| 2026-04-16 14:50 | 25.46345 | 34.08255 | 15495 ft | 396 kts | 71° |
| 2026-04-16 14:50 | 25.47500 | 34.11003 | 14905 ft | 395 kts | 56° |
| 2026-04-16 14:50 | 25.49249 | 34.13329 | 14328 ft | 392 kts | 40° |
| 2026-04-16 14:50 | 25.51415 | 34.15115 | 13800 ft | 388 kts | 31° |
| 2026-04-16 14:51 | 25.53675 | 34.16739 | 13224 ft | 386 kts | 31° |
| 2026-04-16 14:51 | 25.55913 | 34.18358 | 12676 ft | 383 kts | 31° |
| 2026-04-16 14:51 | 25.58140 | 34.19973 | 11738 ft | 384 kts | 32° |
| 2026-04-16 14:51 | 25.60372 | 34.21592 | 10759 ft | 384 kts | 32° |
| 2026-04-16 14:53 | 25.74444 | 34.32294 | 6986 ft | 308 kts | 57° |
| 2026-04-16 14:53 | 25.75098 | 34.34466 | 6610 ft | 292 kts | 90° |
| 2026-04-16 14:54 | 25.74857 | 34.36626 | 6292 ft | 275 kts | 104° |
| 2026-04-16 14:54 | 25.74388 | 34.38673 | 5964 ft | 272 kts | 108° |
| 2026-04-16 14:54 | 25.73868 | 34.40677 | 5615 ft | 267 kts | 108° |
| 2026-04-16 14:54 | 25.73366 | 34.42606 | 5273 ft | 254 kts | 107° |
| 2026-04-16 14:55 | 25.72903 | 34.44456 | 4943 ft | 244 kts | 105° |
| 2026-04-16 14:55 | 25.72472 | 34.46236 | 4616 ft | 235 kts | 106° |
| 2026-04-16 14:55 | 25.71740 | 34.47808 | 4245 ft | 229 kts | 131° |
| 2026-04-16 14:55 | 25.70487 | 34.48867 | 3831 ft | 227 kts | 149° |
| 2026-04-16 14:56 | 25.69128 | 34.49731 | 3473 ft | 219 kts | 149° |
| 2026-04-16 14:56 | 25.67809 | 34.50528 | 2992 ft | 213 kts | 148° |
| 2026-04-16 14:56 | 25.66534 | 34.51362 | 2593 ft | 210 kts | 147° |
| 2026-04-16 14:56 | 25.65335 | 34.52208 | 2270 ft | 199 kts | 144° |
| 2026-04-16 14:57 | 25.64189 | 34.52991 | 1942 ft | 189 kts | 146° |
| 2026-04-16 14:57 | 25.63085 | 34.53695 | 1697 ft | 173 kts | 148° |
| 2026-04-16 14:57 | 25.62092 | 34.54303 | 1439 ft | 156 kts | 148° |
| 2026-04-16 14:57 | 25.61180 | 34.54868 | 1178 ft | 145 kts | 146° |
| 2026-04-16 14:58 | 25.60328 | 34.55421 | 996 ft | 140 kts | 147° |
| 2026-04-16 14:58 | 25.58917 | 34.56347 | 723 ft | 142 kts | 149° |
| 2026-04-16 14:58 | 25.58062 | 34.56879 | 526 ft | 140 kts | 149° |
| 2026-04-16 14:59 | 25.57225 | 34.57409 | 348 ft | 137 kts | 146° |
| 2026-04-16 14:59 | 25.56431 | 34.57924 | 259 ft | 120 kts | 149° |
| 2026-04-16 14:59 | 25.55854 | 34.58290 | 262 ft | 71 kts | 150° |
| 2026-04-16 14:59 | 25.55574 | 34.58469 | 259 ft | 27 kts | 150° |
| 2026-04-16 15:00 | 25.55491 | 34.58577 | 256 ft | 17 kts | 76° |
| 2026-04-16 15:00 | 25.55547 | 34.58689 | 255 ft | 16 kts | 59° |
| 2026-04-16 15:00 | 25.55609 | 34.58806 | 245 ft | 16 kts | 58° |
| 2026-04-16 15:00 | 25.55627 | 34.58889 | 242 ft | 11 kts | 120° |
| 2026-04-16 15:01 | 25.55559 | 34.58937 | 242 ft | 13 kts | 150° |
| 2026-04-16 15:01 | 25.55478 | 34.58989 | 242 ft | 11 kts | 150° |
| 2026-04-16 15:01 | 25.55442 | 34.59028 | 242 ft | 7 kts | 94° |
| 2026-04-16 15:01 | 25.55464 | 34.59077 | 242 ft | 4 kts | 59° |
| 2026-04-16 15:02 | 25.55468 | 34.59084 | 242 ft | 0 kts | 60° |